HOURLY OBS INDEX

077

Mallee - south

HOPETOUN AIRPORT

Site: 077010
Alt: 77.3m
87km NNE of DIMBOOLA


  Time     Wind        Temp  DP   Baro     Rain since   Rain past  Vis(m), Cloud(base in m), Weather
  local        km/h                         9am  last   hr   10m    
Sun 17:00    W 11/ 15  33.1  3.9  1008.4    0.0   0.0   0.0   0.0   ----- 
Sun 17:30    N  2/  7  32.7  3.6  1008.3    0.0   0.0   0.0   0.0   ----- 
Sun 18:00    S  6/  7  33.0  3.9  1008.1    0.0   0.0   0.0   0.0   ----- 
Sun 18:30   SE  4/  7  32.9  3.8  1007.9    0.0   0.0   0.0   0.0   ----- 
Sun 19:00  NNE  2/  4  32.9  3.8  1007.6    0.0   0.0   0.0   0.0   ----- 
Sun 19:30   NE  2/  4  32.6  2.6  1007.7    0.0   0.0   0.0   0.0   ----- 
Sun 20:00    E  4/  6  31.6  4.4  1007.8    0.0   0.0   0.0   0.0   ----- 
Sun 20:30  ENE  7/  7  29.6  4.3  1007.8    0.0   0.0   0.0   0.0   ----- 
Sun 21:00  ENE  6/  7  28.5  4.1  1008.0    0.0   0.0   0.0   0.0   ----- 
Sun 21:30  ENE  6/  7  27.3  4.4  1008.2    0.0   0.0   0.0   0.0   ----- 
Sun 22:00   NE  4/  6  26.1  4.6  1008.5    0.0   0.0   0.0   0.0   ----- 

SWAN HILL AERODROME

Site: 077094
Alt: 71.0m
4km SSW of SWAN HILL


  Time     Wind        Temp  DP   Baro     Rain since   Rain past  Vis(m), Cloud(base in m), Weather
  local        km/h                         9am  last   hr   10m    
Sun 17:00    W 20/ 28  35.4 -0.8  1007.8    0.0   0.0   0.0   0.0   10000 
Sun 17:30    W 17/ 30  35.6 -0.7  1007.5    0.0   0.0   0.0   0.0   10000 
Sun 18:00    W 24/ 33  35.4 -2.3  1007.3    0.0   0.0   0.0   0.0   10000 
Sun 18:30  WSW 17/ 24  34.3 -3.1  1007.5    0.0   0.0   0.0   0.0   10000 
Sun 19:00  WSW 15/ 20  33.9 -2.0  1007.4    0.0   0.0   0.0   0.0   10000 
Sun 19:30   SW 13/ 19  33.7 -0.8  1007.4    0.0   0.0   0.0   0.0   10000 
Sun 20:00    S  9/ 15  33.1 -0.1  1007.3    0.0   0.0   0.0   0.0   10000 
Sun 20:30  SSW  9/ 13  31.4  0.7  1007.6    0.0   0.0   0.0   0.0   10000 
Sun 21:00    S  7/ 11  30.4  0.9  1007.9    0.0   0.0   0.0   0.0   10000 
Sun 21:30  SSW  9/ 11  29.0  1.5  1008.2    0.0   0.0   0.0   0.0   10000 
Sun 22:00  SSW  7/  9  27.2  2.3  1008.2    0.0   0.0   0.0   0.0   10000